sensor_id;sensor_type;location;lat;lon;timestamp;P1;durP1;ratioP1;P2;durP2;ratioP2
48363;SDS011;34170;54.364;18.582;2022-08-19T00:01:56;15.65;;;10.50;;
48363;SDS011;34170;54.364;18.582;2022-08-19T00:04:31;12.98;;;10.48;;
48363;SDS011;34170;54.364;18.582;2022-08-19T00:07:04;12.45;;;10.55;;
48363;SDS011;34170;54.364;18.582;2022-08-19T00:09:32;11.65;;;10.40;;
48363;SDS011;34170;54.364;18.582;2022-08-19T00:12:00;16.95;;;12.00;;
48363;SDS011;34170;54.364;18.582;2022-08-19T00:14:28;17.80;;;12.27;;
48363;SDS011;34170;54.364;18.582;2022-08-19T00:19:27;12.60;;;11.30;;
48363;SDS011;34170;54.364;18.582;2022-08-19T00:21:55;15.07;;;13.27;;
48363;SDS011;34170;54.364;18.582;2022-08-19T00:24:23;18.60;;;12.73;;
48363;SDS011;34170;54.364;18.582;2022-08-19T00:26:51;16.98;;;12.02;;
48363;SDS011;34170;54.364;18.582;2022-08-19T00:29:20;21.48;;;14.75;;
48363;SDS011;34170;54.364;18.582;2022-08-19T00:31:48;28.13;;;20.40;;
48363;SDS011;34170;54.364;18.582;2022-08-19T00:34:17;24.40;;;21.80;;
48363;SDS011;34170;54.364;18.582;2022-08-19T00:36:45;16.85;;;14.73;;
48363;SDS011;34170;54.364;18.582;2022-08-19T00:39:13;15.75;;;13.98;;
48363;SDS011;34170;54.364;18.582;2022-08-19T00:41:42;20.05;;;15.43;;
48363;SDS011;34170;54.364;18.582;2022-08-19T00:44:22;23.23;;;18.48;;
48363;SDS011;34170;54.364;18.582;2022-08-19T00:46:53;22.27;;;17.52;;
48363;SDS011;34170;54.364;18.582;2022-08-19T00:49:29;21.42;;;14.95;;
48363;SDS011;34170;54.364;18.582;2022-08-19T00:52:02;18.95;;;14.15;;
48363;SDS011;34170;54.364;18.582;2022-08-19T00:54:33;27.15;;;14.68;;
48363;SDS011;34170;54.364;18.582;2022-08-19T00:57:04;18.92;;;14.73;;
48363;SDS011;34170;54.364;18.582;2022-08-19T00:59:35;19.38;;;14.63;;
48363;SDS011;34170;54.364;18.582;2022-08-19T01:02:25;18.65;;;14.57;;
48363;SDS011;34170;54.364;18.582;2022-08-19T01:04:54;23.02;;;14.70;;
48363;SDS011;34170;54.364;18.582;2022-08-19T01:07:22;23.60;;;15.88;;
48363;SDS011;34170;54.364;18.582;2022-08-19T01:09:50;21.85;;;15.27;;
48363;SDS011;34170;54.364;18.582;2022-08-19T01:12:17;25.85;;;16.20;;
48363;SDS011;34170;54.364;18.582;2022-08-19T01:14:46;22.17;;;14.40;;
48363;SDS011;34170;54.364;18.582;2022-08-19T01:17:14;24.08;;;15.18;;
48363;SDS011;34170;54.364;18.582;2022-08-19T01:19:43;20.27;;;14.25;;
48363;SDS011;34170;54.364;18.582;2022-08-19T01:22:19;21.65;;;14.45;;
48363;SDS011;34170;54.364;18.582;2022-08-19T01:24:58;23.75;;;15.57;;
48363;SDS011;34170;54.364;18.582;2022-08-19T01:27:26;20.45;;;15.15;;
48363;SDS011;34170;54.364;18.582;2022-08-19T01:30:01;18.02;;;14.43;;
48363;SDS011;34170;54.364;18.582;2022-08-19T01:32:29;15.90;;;14.05;;
48363;SDS011;34170;54.364;18.582;2022-08-19T01:35:01;17.25;;;13.85;;
48363;SDS011;34170;54.364;18.582;2022-08-19T01:37:29;22.58;;;15.40;;
48363;SDS011;34170;54.364;18.582;2022-08-19T01:39:57;22.17;;;14.70;;
48363;SDS011;34170;54.364;18.582;2022-08-19T01:42:24;17.45;;;13.55;;
48363;SDS011;34170;54.364;18.582;2022-08-19T01:44:56;15.63;;;12.85;;
48363;SDS011;34170;54.364;18.582;2022-08-19T01:47:24;16.55;;;13.32;;
48363;SDS011;34170;54.364;18.582;2022-08-19T01:49:51;15.02;;;12.23;;
48363;SDS011;34170;54.364;18.582;2022-08-19T01:52:18;18.42;;;12.13;;
48363;SDS011;34170;54.364;18.582;2022-08-19T01:54:46;17.40;;;12.38;;
48363;SDS011;34170;54.364;18.582;2022-08-19T01:57:13;14.27;;;10.65;;
48363;SDS011;34170;54.364;18.582;2022-08-19T01:59:41;16.88;;;11.68;;
48363;SDS011;34170;54.364;18.582;2022-08-19T02:02:10;18.45;;;11.77;;
48363;SDS011;34170;54.364;18.582;2022-08-19T02:04:38;18.05;;;12.38;;
48363;SDS011;34170;54.364;18.582;2022-08-19T02:07:06;18.13;;;10.75;;
48363;SDS011;34170;54.364;18.582;2022-08-19T02:09:34;14.98;;;11.15;;
48363;SDS011;34170;54.364;18.582;2022-08-19T02:12:03;14.02;;;9.90;;
48363;SDS011;34170;54.364;18.582;2022-08-19T02:14:33;11.48;;;10.07;;
48363;SDS011;34170;54.364;18.582;2022-08-19T02:17:00;16.75;;;10.68;;
48363;SDS011;34170;54.364;18.582;2022-08-19T02:19:28;13.43;;;9.85;;
48363;SDS011;34170;54.364;18.582;2022-08-19T02:21:55;16.13;;;10.90;;
48363;SDS011;34170;54.364;18.582;2022-08-19T02:24:23;17.55;;;11.13;;
48363;SDS011;34170;54.364;18.582;2022-08-19T02:26:50;15.80;;;10.75;;
48363;SDS011;34170;54.364;18.582;2022-08-19T02:29:18;17.92;;;11.05;;
48363;SDS011;34170;54.364;18.582;2022-08-19T02:31:45;17.05;;;10.63;;
48363;SDS011;34170;54.364;18.582;2022-08-19T02:34:12;14.90;;;10.43;;
48363;SDS011;34170;54.364;18.582;2022-08-19T02:36:40;18.52;;;10.20;;
48363;SDS011;34170;54.364;18.582;2022-08-19T02:39:08;15.13;;;10.57;;
48363;SDS011;34170;54.364;18.582;2022-08-19T02:41:36;15.45;;;11.68;;
48363;SDS011;34170;54.364;18.582;2022-08-19T02:44:04;14.80;;;9.98;;
48363;SDS011;34170;54.364;18.582;2022-08-19T02:46:51;13.48;;;10.38;;
48363;SDS011;34170;54.364;18.582;2022-08-19T02:49:19;12.90;;;10.40;;
48363;SDS011;34170;54.364;18.582;2022-08-19T02:51:46;13.70;;;10.40;;
48363;SDS011;34170;54.364;18.582;2022-08-19T02:54:14;17.00;;;10.85;;
48363;SDS011;34170;54.364;18.582;2022-08-19T02:56:42;13.82;;;10.63;;
48363;SDS011;34170;54.364;18.582;2022-08-19T02:59:10;17.23;;;11.20;;
48363;SDS011;34170;54.364;18.582;2022-08-19T03:01:39;13.32;;;10.40;;
48363;SDS011;34170;54.364;18.582;2022-08-19T03:04:08;17.98;;;10.75;;
48363;SDS011;34170;54.364;18.582;2022-08-19T03:06:39;19.52;;;10.95;;
48363;SDS011;34170;54.364;18.582;2022-08-19T03:09:08;15.60;;;12.15;;
48363;SDS011;34170;54.364;18.582;2022-08-19T03:11:36;17.83;;;11.80;;
48363;SDS011;34170;54.364;18.582;2022-08-19T03:14:05;16.10;;;11.15;;
48363;SDS011;34170;54.364;18.582;2022-08-19T03:16:35;17.63;;;12.05;;
48363;SDS011;34170;54.364;18.582;2022-08-19T03:19:15;17.75;;;12.57;;
48363;SDS011;34170;54.364;18.582;2022-08-19T03:21:44;17.63;;;12.43;;
48363;SDS011;34170;54.364;18.582;2022-08-19T03:24:12;16.67;;;11.77;;
48363;SDS011;34170;54.364;18.582;2022-08-19T03:26:43;15.23;;;11.68;;
48363;SDS011;34170;54.364;18.582;2022-08-19T03:29:13;16.05;;;11.70;;
48363;SDS011;34170;54.364;18.582;2022-08-19T03:31:56;17.27;;;11.48;;
48363;SDS011;34170;54.364;18.582;2022-08-19T03:34:24;17.95;;;11.25;;
48363;SDS011;34170;54.364;18.582;2022-08-19T03:36:54;14.60;;;11.82;;
48363;SDS011;34170;54.364;18.582;2022-08-19T03:39:23;19.75;;;12.95;;
48363;SDS011;34170;54.364;18.582;2022-08-19T03:41:52;16.95;;;13.00;;
48363;SDS011;34170;54.364;18.582;2022-08-19T03:44:40;16.60;;;11.50;;
48363;SDS011;34170;54.364;18.582;2022-08-19T03:47:09;23.55;;;13.93;;
48363;SDS011;34170;54.364;18.582;2022-08-19T03:49:36;16.35;;;12.38;;
48363;SDS011;34170;54.364;18.582;2022-08-19T03:52:03;17.17;;;14.65;;
48363;SDS011;34170;54.364;18.582;2022-08-19T03:54:34;23.80;;;14.80;;
48363;SDS011;34170;54.364;18.582;2022-08-19T03:57:02;18.92;;;13.65;;
48363;SDS011;34170;54.364;18.582;2022-08-19T03:59:31;22.13;;;13.23;;
48363;SDS011;34170;54.364;18.582;2022-08-19T04:02:01;18.38;;;14.35;;
48363;SDS011;34170;54.364;18.582;2022-08-19T04:04:32;19.35;;;13.70;;
48363;SDS011;34170;54.364;18.582;2022-08-19T04:06:59;12.77;;;10.98;;
48363;SDS011;34170;54.364;18.582;2022-08-19T04:09:27;14.07;;;11.57;;
48363;SDS011;34170;54.364;18.582;2022-08-19T04:11:55;24.50;;;15.10;;
48363;SDS011;34170;54.364;18.582;2022-08-19T04:14:24;16.65;;;13.27;;
48363;SDS011;34170;54.364;18.582;2022-08-19T04:16:55;18.60;;;12.35;;
48363;SDS011;34170;54.364;18.582;2022-08-19T04:19:23;18.77;;;12.98;;
48363;SDS011;34170;54.364;18.582;2022-08-19T04:21:52;15.13;;;12.57;;
48363;SDS011;34170;54.364;18.582;2022-08-19T04:24:21;14.52;;;11.70;;
48363;SDS011;34170;54.364;18.582;2022-08-19T04:26:49;15.52;;;11.90;;
48363;SDS011;34170;54.364;18.582;2022-08-19T04:29:21;24.88;;;13.05;;
48363;SDS011;34170;54.364;18.582;2022-08-19T04:31:52;12.90;;;11.10;;
48363;SDS011;34170;54.364;18.582;2022-08-19T04:34:22;18.05;;;11.02;;
48363;SDS011;34170;54.364;18.582;2022-08-19T04:36:52;19.02;;;13.13;;
48363;SDS011;34170;54.364;18.582;2022-08-19T04:39:22;16.95;;;11.57;;
48363;SDS011;34170;54.364;18.582;2022-08-19T04:42:15;15.48;;;12.05;;
48363;SDS011;34170;54.364;18.582;2022-08-19T04:45:03;13.38;;;10.88;;
48363;SDS011;34170;54.364;18.582;2022-08-19T04:47:36;14.63;;;12.15;;
48363;SDS011;34170;54.364;18.582;2022-08-19T04:50:25;15.27;;;11.77;;
48363;SDS011;34170;54.364;18.582;2022-08-19T04:52:53;14.85;;;11.25;;
48363;SDS011;34170;54.364;18.582;2022-08-19T04:55:23;17.00;;;12.18;;
48363;SDS011;34170;54.364;18.582;2022-08-19T04:57:53;16.90;;;11.13;;
48363;SDS011;34170;54.364;18.582;2022-08-19T05:00:21;12.82;;;10.77;;
48363;SDS011;34170;54.364;18.582;2022-08-19T05:02:49;12.93;;;10.25;;
48363;SDS011;34170;54.364;18.582;2022-08-19T05:05:16;22.50;;;11.43;;
48363;SDS011;34170;54.364;18.582;2022-08-19T05:07:44;13.10;;;9.77;;
48363;SDS011;34170;54.364;18.582;2022-08-19T05:10:11;15.85;;;11.70;;
48363;SDS011;34170;54.364;18.582;2022-08-19T05:12:39;14.18;;;10.18;;
48363;SDS011;34170;54.364;18.582;2022-08-19T05:15:07;16.05;;;10.82;;
48363;SDS011;34170;54.364;18.582;2022-08-19T05:17:37;18.33;;;10.82;;
48363;SDS011;34170;54.364;18.582;2022-08-19T05:20:25;13.80;;;10.10;;
48363;SDS011;34170;54.364;18.582;2022-08-19T05:23:11;14.43;;;9.65;;
48363;SDS011;34170;54.364;18.582;2022-08-19T05:25:48;16.35;;;9.77;;
48363;SDS011;34170;54.364;18.582;2022-08-19T05:28:19;11.77;;;9.25;;
48363;SDS011;34170;54.364;18.582;2022-08-19T05:30:47;17.38;;;9.98;;
48363;SDS011;34170;54.364;18.582;2022-08-19T05:33:17;10.85;;;8.68;;
48363;SDS011;34170;54.364;18.582;2022-08-19T05:35:45;15.55;;;10.57;;
48363;SDS011;34170;54.364;18.582;2022-08-19T05:38:13;18.02;;;10.75;;
48363;SDS011;34170;54.364;18.582;2022-08-19T05:40:40;13.68;;;8.88;;
48363;SDS011;34170;54.364;18.582;2022-08-19T05:43:08;10.85;;;9.70;;
48363;SDS011;34170;54.364;18.582;2022-08-19T05:45:39;17.13;;;10.93;;
48363;SDS011;34170;54.364;18.582;2022-08-19T05:48:08;13.43;;;9.93;;
48363;SDS011;34170;54.364;18.582;2022-08-19T05:50:38;12.20;;;9.95;;
48363;SDS011;34170;54.364;18.582;2022-08-19T05:53:07;13.50;;;9.27;;
48363;SDS011;34170;54.364;18.582;2022-08-19T05:55:35;13.63;;;9.77;;
48363;SDS011;34170;54.364;18.582;2022-08-19T05:58:05;19.83;;;10.50;;
48363;SDS011;34170;54.364;18.582;2022-08-19T06:00:35;12.55;;;9.00;;
48363;SDS011;34170;54.364;18.582;2022-08-19T06:03:04;12.60;;;9.35;;
48363;SDS011;34170;54.364;18.582;2022-08-19T06:05:39;12.18;;;9.38;;
48363;SDS011;34170;54.364;18.582;2022-08-19T06:08:18;12.68;;;9.50;;
48363;SDS011;34170;54.364;18.582;2022-08-19T06:10:45;11.80;;;10.10;;
48363;SDS011;34170;54.364;18.582;2022-08-19T06:13:13;12.40;;;10.05;;
48363;SDS011;34170;54.364;18.582;2022-08-19T06:15:40;14.75;;;9.05;;
48363;SDS011;34170;54.364;18.582;2022-08-19T06:18:10;16.10;;;9.10;;
48363;SDS011;34170;54.364;18.582;2022-08-19T06:20:38;13.25;;;9.57;;
48363;SDS011;34170;54.364;18.582;2022-08-19T06:23:22;11.82;;;8.73;;
48363;SDS011;34170;54.364;18.582;2022-08-19T06:25:50;11.75;;;8.10;;
48363;SDS011;34170;54.364;18.582;2022-08-19T06:28:17;11.10;;;8.63;;
48363;SDS011;34170;54.364;18.582;2022-08-19T06:30:45;17.70;;;9.25;;
48363;SDS011;34170;54.364;18.582;2022-08-19T06:33:12;10.15;;;8.02;;
48363;SDS011;34170;54.364;18.582;2022-08-19T06:35:40;12.48;;;8.38;;
48363;SDS011;34170;54.364;18.582;2022-08-19T06:38:08;9.80;;;7.22;;
48363;SDS011;34170;54.364;18.582;2022-08-19T06:40:36;9.90;;;7.55;;
48363;SDS011;34170;54.364;18.582;2022-08-19T06:43:05;10.38;;;8.00;;
48363;SDS011;34170;54.364;18.582;2022-08-19T06:45:36;14.55;;;9.23;;
48363;SDS011;34170;54.364;18.582;2022-08-19T06:48:05;10.57;;;8.57;;
48363;SDS011;34170;54.364;18.582;2022-08-19T06:50:33;9.98;;;8.45;;
48363;SDS011;34170;54.364;18.582;2022-08-19T06:53:05;13.43;;;7.95;;
48363;SDS011;34170;54.364;18.582;2022-08-19T06:55:33;7.50;;;6.70;;
48363;SDS011;34170;54.364;18.582;2022-08-19T06:58:02;12.18;;;7.45;;
48363;SDS011;34170;54.364;18.582;2022-08-19T07:00:31;8.95;;;7.20;;
48363;SDS011;34170;54.364;18.582;2022-08-19T07:02:58;11.25;;;7.28;;
48363;SDS011;34170;54.364;18.582;2022-08-19T07:05:37;10.70;;;8.15;;
48363;SDS011;34170;54.364;18.582;2022-08-19T07:08:11;14.02;;;7.57;;
48363;SDS011;34170;54.364;18.582;2022-08-19T07:10:42;10.68;;;7.88;;
48363;SDS011;34170;54.364;18.582;2022-08-19T07:13:10;10.88;;;7.93;;
48363;SDS011;34170;54.364;18.582;2022-08-19T07:15:38;8.73;;;7.60;;
48363;SDS011;34170;54.364;18.582;2022-08-19T07:18:06;10.02;;;8.27;;
48363;SDS011;34170;54.364;18.582;2022-08-19T07:20:38;13.32;;;8.55;;
48363;SDS011;34170;54.364;18.582;2022-08-19T07:23:08;12.98;;;7.60;;
48363;SDS011;34170;54.364;18.582;2022-08-19T07:25:42;10.98;;;8.30;;
48363;SDS011;34170;54.364;18.582;2022-08-19T07:28:10;15.48;;;7.97;;
48363;SDS011;34170;54.364;18.582;2022-08-19T07:30:50;13.33;;;8.40;;
48363;SDS011;34170;54.364;18.582;2022-08-19T07:33:19;13.30;;;8.27;;
48363;SDS011;34170;54.364;18.582;2022-08-19T07:35:46;10.20;;;8.27;;
48363;SDS011;34170;54.364;18.582;2022-08-19T07:38:13;9.30;;;7.65;;
48363;SDS011;34170;54.364;18.582;2022-08-19T07:40:43;9.13;;;7.22;;
48363;SDS011;34170;54.364;18.582;2022-08-19T07:43:13;10.80;;;8.75;;
48363;SDS011;34170;54.364;18.582;2022-08-19T07:45:44;12.75;;;7.78;;
48363;SDS011;34170;54.364;18.582;2022-08-19T07:48:12;8.95;;;6.68;;
48363;SDS011;34170;54.364;18.582;2022-08-19T07:50:39;10.75;;;8.00;;
48363;SDS011;34170;54.364;18.582;2022-08-19T07:53:07;16.15;;;7.93;;
48363;SDS011;34170;54.364;18.582;2022-08-19T07:55:34;15.00;;;7.78;;
48363;SDS011;34170;54.364;18.582;2022-08-19T07:58:09;10.80;;;7.40;;
48363;SDS011;34170;54.364;18.582;2022-08-19T08:00:39;9.93;;;7.18;;
48363;SDS011;34170;54.364;18.582;2022-08-19T08:03:06;12.57;;;7.78;;
48363;SDS011;34170;54.364;18.582;2022-08-19T08:05:35;9.88;;;7.22;;
48363;SDS011;34170;54.364;18.582;2022-08-19T08:08:21;10.55;;;7.25;;
48363;SDS011;34170;54.364;18.582;2022-08-19T08:11:15;15.25;;;8.32;;
48363;SDS011;34170;54.364;18.582;2022-08-19T08:13:47;11.68;;;7.03;;
48363;SDS011;34170;54.364;18.582;2022-08-19T08:16:28;10.07;;;7.68;;
48363;SDS011;34170;54.364;18.582;2022-08-19T08:18:58;9.48;;;7.20;;
48363;SDS011;34170;54.364;18.582;2022-08-19T08:21:26;10.60;;;6.85;;
48363;SDS011;34170;54.364;18.582;2022-08-19T08:23:54;9.88;;;7.28;;
48363;SDS011;34170;54.364;18.582;2022-08-19T08:26:23;9.55;;;7.32;;
48363;SDS011;34170;54.364;18.582;2022-08-19T08:28:51;10.88;;;6.75;;
48363;SDS011;34170;54.364;18.582;2022-08-19T08:31:19;15.07;;;7.50;;
48363;SDS011;34170;54.364;18.582;2022-08-19T08:33:46;8.43;;;6.22;;
48363;SDS011;34170;54.364;18.582;2022-08-19T08:36:15;9.15;;;7.35;;
48363;SDS011;34170;54.364;18.582;2022-08-19T08:38:43;11.27;;;7.20;;
48363;SDS011;34170;54.364;18.582;2022-08-19T08:44:13;12.98;;;6.60;;
48363;SDS011;34170;54.364;18.582;2022-08-19T08:46:52;11.05;;;6.78;;
48363;SDS011;34170;54.364;18.582;2022-08-19T08:49:33;8.98;;;6.18;;
48363;SDS011;34170;54.364;18.582;2022-08-19T08:52:12;7.05;;;5.90;;
48363;SDS011;34170;54.364;18.582;2022-08-19T08:54:48;8.27;;;6.00;;
48363;SDS011;34170;54.364;18.582;2022-08-19T09:00:32;9.00;;;5.97;;
48363;SDS011;34170;54.364;18.582;2022-08-19T09:03:02;10.23;;;6.40;;
48363;SDS011;34170;54.364;18.582;2022-08-19T09:14:57;10.85;;;5.38;;
48363;SDS011;34170;54.364;18.582;2022-08-19T09:17:29;10.30;;;5.60;;
48363;SDS011;34170;54.364;18.582;2022-08-19T09:20:00;9.23;;;5.53;;
48363;SDS011;34170;54.364;18.582;2022-08-19T09:22:48;7.95;;;6.00;;
48363;SDS011;34170;54.364;18.582;2022-08-19T09:25:17;8.60;;;5.25;;
48363;SDS011;34170;54.364;18.582;2022-08-19T09:27:53;10.85;;;5.65;;
48363;SDS011;34170;54.364;18.582;2022-08-19T09:30:32;8.15;;;5.38;;
48363;SDS011;34170;54.364;18.582;2022-08-19T09:33:04;11.27;;;5.45;;
48363;SDS011;34170;54.364;18.582;2022-08-19T09:35:33;8.32;;;4.85;;
48363;SDS011;34170;54.364;18.582;2022-08-19T09:38:20;11.95;;;5.93;;
48363;SDS011;34170;54.364;18.582;2022-08-19T09:40:48;9.85;;;5.57;;
48363;SDS011;34170;54.364;18.582;2022-08-19T09:43:17;9.68;;;5.85;;
48363;SDS011;34170;54.364;18.582;2022-08-19T09:46:00;7.50;;;5.07;;
48363;SDS011;34170;54.364;18.582;2022-08-19T09:48:28;8.02;;;5.30;;
48363;SDS011;34170;54.364;18.582;2022-08-19T09:51:01;8.23;;;5.45;;
48363;SDS011;34170;54.364;18.582;2022-08-19T09:53:38;8.20;;;4.97;;
48363;SDS011;34170;54.364;18.582;2022-08-19T09:56:06;18.08;;;5.82;;
48363;SDS011;34170;54.364;18.582;2022-08-19T09:58:35;9.10;;;5.10;;
48363;SDS011;34170;54.364;18.582;2022-08-19T10:01:04;8.48;;;5.20;;
48363;SDS011;34170;54.364;18.582;2022-08-19T10:03:34;8.43;;;5.25;;
48363;SDS011;34170;54.364;18.582;2022-08-19T10:06:04;9.65;;;5.35;;
48363;SDS011;34170;54.364;18.582;2022-08-19T10:08:41;7.20;;;4.50;;
48363;SDS011;34170;54.364;18.582;2022-08-19T10:11:16;8.50;;;5.82;;
48363;SDS011;34170;54.364;18.582;2022-08-19T10:14:02;8.38;;;5.18;;
48363;SDS011;34170;54.364;18.582;2022-08-19T10:16:32;8.10;;;5.43;;
48363;SDS011;34170;54.364;18.582;2022-08-19T10:19:05;11.80;;;5.97;;
48363;SDS011;34170;54.364;18.582;2022-08-19T10:21:33;10.38;;;6.18;;
48363;SDS011;34170;54.364;18.582;2022-08-19T10:24:03;8.50;;;5.65;;
48363;SDS011;34170;54.364;18.582;2022-08-19T10:26:35;9.98;;;5.85;;
48363;SDS011;34170;54.364;18.582;2022-08-19T10:29:04;11.05;;;5.38;;
48363;SDS011;34170;54.364;18.582;2022-08-19T10:31:35;9.18;;;5.47;;
48363;SDS011;34170;54.364;18.582;2022-08-19T10:34:22;6.50;;;5.13;;
48363;SDS011;34170;54.364;18.582;2022-08-19T10:36:54;6.72;;;5.05;;
48363;SDS011;34170;54.364;18.582;2022-08-19T10:39:34;7.25;;;5.50;;
48363;SDS011;34170;54.364;18.582;2022-08-19T10:42:09;8.13;;;5.57;;
48363;SDS011;34170;54.364;18.582;2022-08-19T10:44:37;7.55;;;5.13;;
48363;SDS011;34170;54.364;18.582;2022-08-19T10:47:04;7.55;;;5.20;;
48363;SDS011;34170;54.364;18.582;2022-08-19T10:49:51;6.75;;;5.30;;
48363;SDS011;34170;54.364;18.582;2022-08-19T10:52:42;9.70;;;5.57;;
48363;SDS011;34170;54.364;18.582;2022-08-19T10:55:21;8.57;;;5.80;;
48363;SDS011;34170;54.364;18.582;2022-08-19T10:58:10;9.85;;;4.72;;
48363;SDS011;34170;54.364;18.582;2022-08-19T11:00:39;10.13;;;5.00;;
48363;SDS011;34170;54.364;18.582;2022-08-19T11:03:07;11.77;;;5.10;;
48363;SDS011;34170;54.364;18.582;2022-08-19T11:05:35;9.15;;;5.20;;
48363;SDS011;34170;54.364;18.582;2022-08-19T11:08:06;9.02;;;5.05;;
48363;SDS011;34170;54.364;18.582;2022-08-19T11:10:52;10.13;;;5.30;;
48363;SDS011;34170;54.364;18.582;2022-08-19T11:13:27;11.40;;;5.53;;
48363;SDS011;34170;54.364;18.582;2022-08-19T11:15:59;9.15;;;5.57;;
48363;SDS011;34170;54.364;18.582;2022-08-19T11:18:34;14.55;;;5.50;;
48363;SDS011;34170;54.364;18.582;2022-08-19T11:21:05;9.70;;;6.10;;
48363;SDS011;34170;54.364;18.582;2022-08-19T11:23:41;13.32;;;6.38;;
48363;SDS011;34170;54.364;18.582;2022-08-19T11:26:09;8.43;;;5.63;;
48363;SDS011;34170;54.364;18.582;2022-08-19T11:28:36;11.32;;;5.53;;
48363;SDS011;34170;54.364;18.582;2022-08-19T11:31:13;12.82;;;5.75;;
48363;SDS011;34170;54.364;18.582;2022-08-19T11:33:44;9.70;;;5.88;;
48363;SDS011;34170;54.364;18.582;2022-08-19T11:36:14;10.63;;;5.33;;
48363;SDS011;34170;54.364;18.582;2022-08-19T11:38:43;8.93;;;5.97;;
48363;SDS011;34170;54.364;18.582;2022-08-19T11:41:11;10.10;;;5.65;;
48363;SDS011;34170;54.364;18.582;2022-08-19T11:43:39;10.85;;;6.15;;
48363;SDS011;34170;54.364;18.582;2022-08-19T11:46:07;9.45;;;5.72;;
48363;SDS011;34170;54.364;18.582;2022-08-19T11:48:36;9.35;;;6.13;;
48363;SDS011;34170;54.364;18.582;2022-08-19T11:51:09;10.73;;;6.15;;
48363;SDS011;34170;54.364;18.582;2022-08-19T11:53:38;9.95;;;5.97;;
48363;SDS011;34170;54.364;18.582;2022-08-19T11:56:07;10.48;;;6.35;;
48363;SDS011;34170;54.364;18.582;2022-08-19T11:58:35;12.27;;;5.80;;
48363;SDS011;34170;54.364;18.582;2022-08-19T12:01:10;10.07;;;5.97;;
48363;SDS011;34170;54.364;18.582;2022-08-19T12:03:39;10.35;;;5.47;;
48363;SDS011;34170;54.364;18.582;2022-08-19T12:06:08;6.82;;;5.18;;
48363;SDS011;34170;54.364;18.582;2022-08-19T12:08:36;10.95;;;5.93;;
48363;SDS011;34170;54.364;18.582;2022-08-19T12:11:04;11.35;;;5.47;;
48363;SDS011;34170;54.364;18.582;2022-08-19T12:13:34;10.02;;;6.07;;
48363;SDS011;34170;54.364;18.582;2022-08-19T12:16:08;14.27;;;6.35;;
48363;SDS011;34170;54.364;18.582;2022-08-19T12:18:39;13.70;;;6.18;;
48363;SDS011;34170;54.364;18.582;2022-08-19T12:21:10;12.25;;;5.78;;
48363;SDS011;34170;54.364;18.582;2022-08-19T12:23:39;9.20;;;5.90;;
48363;SDS011;34170;54.364;18.582;2022-08-19T12:26:09;7.75;;;5.57;;
48363;SDS011;34170;54.364;18.582;2022-08-19T12:28:37;8.77;;;6.00;;
48363;SDS011;34170;54.364;18.582;2022-08-19T12:31:05;7.95;;;5.93;;
48363;SDS011;34170;54.364;18.582;2022-08-19T12:33:33;8.95;;;6.00;;
48363;SDS011;34170;54.364;18.582;2022-08-19T12:36:04;9.20;;;5.78;;
48363;SDS011;34170;54.364;18.582;2022-08-19T12:38:33;12.20;;;4.97;;
48363;SDS011;34170;54.364;18.582;2022-08-19T12:41:01;9.18;;;5.95;;
48363;SDS011;34170;54.364;18.582;2022-08-19T12:43:33;11.27;;;5.85;;
48363;SDS011;34170;54.364;18.582;2022-08-19T12:46:05;11.85;;;5.28;;
48363;SDS011;34170;54.364;18.582;2022-08-19T12:48:36;8.77;;;5.80;;
48363;SDS011;34170;54.364;18.582;2022-08-19T12:51:08;7.40;;;5.82;;
48363;SDS011;34170;54.364;18.582;2022-08-19T12:53:37;7.50;;;4.80;;
48363;SDS011;34170;54.364;18.582;2022-08-19T12:56:06;9.70;;;5.65;;
48363;SDS011;34170;54.364;18.582;2022-08-19T12:58:38;13.90;;;6.25;;
48363;SDS011;34170;54.364;18.582;2022-08-19T13:01:16;9.27;;;5.50;;
48363;SDS011;34170;54.364;18.582;2022-08-19T13:03:49;11.13;;;5.50;;
48363;SDS011;34170;54.364;18.582;2022-08-19T13:06:20;12.38;;;5.40;;
48363;SDS011;34170;54.364;18.582;2022-08-19T13:08:48;10.38;;;5.88;;
48363;SDS011;34170;54.364;18.582;2022-08-19T13:11:16;11.15;;;6.10;;
48363;SDS011;34170;54.364;18.582;2022-08-19T13:13:47;11.63;;;5.90;;
48363;SDS011;34170;54.364;18.582;2022-08-19T13:16:18;8.68;;;5.97;;
48363;SDS011;34170;54.364;18.582;2022-08-19T13:18:47;7.43;;;5.70;;
48363;SDS011;34170;54.364;18.582;2022-08-19T13:21:15;7.22;;;5.60;;
48363;SDS011;34170;54.364;18.582;2022-08-19T13:23:42;8.32;;;4.80;;
48363;SDS011;34170;54.364;18.582;2022-08-19T13:26:10;11.75;;;8.25;;
48363;SDS011;34170;54.364;18.582;2022-08-19T13:28:39;13.70;;;8.15;;
48363;SDS011;34170;54.364;18.582;2022-08-19T13:31:27;11.27;;;5.88;;
48363;SDS011;34170;54.364;18.582;2022-08-19T13:34:17;9.50;;;6.22;;
48363;SDS011;34170;54.364;18.582;2022-08-19T13:36:46;11.57;;;5.70;;
48363;SDS011;34170;54.364;18.582;2022-08-19T13:39:13;8.18;;;5.80;;
48363;SDS011;34170;54.364;18.582;2022-08-19T13:41:43;7.00;;;5.47;;
48363;SDS011;34170;54.364;18.582;2022-08-19T13:44:18;8.13;;;5.32;;
48363;SDS011;34170;54.364;18.582;2022-08-19T13:46:46;14.25;;;6.07;;
48363;SDS011;34170;54.364;18.582;2022-08-19T13:49:20;7.85;;;5.32;;
48363;SDS011;34170;54.364;18.582;2022-08-19T13:51:48;8.50;;;4.68;;
48363;SDS011;34170;54.364;18.582;2022-08-19T13:54:15;13.73;;;6.43;;
48363;SDS011;34170;54.364;18.582;2022-08-19T13:56:44;10.65;;;6.07;;
48363;SDS011;34170;54.364;18.582;2022-08-19T13:59:12;7.60;;;5.97;;
48363;SDS011;34170;54.364;18.582;2022-08-19T14:01:39;8.50;;;5.68;;
48363;SDS011;34170;54.364;18.582;2022-08-19T14:04:08;9.30;;;5.85;;
48363;SDS011;34170;54.364;18.582;2022-08-19T14:06:36;11.30;;;5.85;;
48363;SDS011;34170;54.364;18.582;2022-08-19T14:09:03;12.25;;;5.80;;
48363;SDS011;34170;54.364;18.582;2022-08-19T14:11:31;9.60;;;6.05;;
48363;SDS011;34170;54.364;18.582;2022-08-19T14:13:58;9.27;;;6.43;;
48363;SDS011;34170;54.364;18.582;2022-08-19T14:16:26;9.68;;;6.03;;
48363;SDS011;34170;54.364;18.582;2022-08-19T14:18:54;8.65;;;6.35;;
48363;SDS011;34170;54.364;18.582;2022-08-19T14:21:22;9.13;;;5.85;;
48363;SDS011;34170;54.364;18.582;2022-08-19T14:23:51;9.73;;;6.05;;
48363;SDS011;34170;54.364;18.582;2022-08-19T14:26:20;8.07;;;5.78;;
48363;SDS011;34170;54.364;18.582;2022-08-19T14:28:48;13.23;;;5.85;;
48363;SDS011;34170;54.364;18.582;2022-08-19T14:31:16;8.30;;;5.75;;
48363;SDS011;34170;54.364;18.582;2022-08-19T14:33:46;11.70;;;5.77;;
48363;SDS011;34170;54.364;18.582;2022-08-19T14:36:14;10.15;;;6.80;;
48363;SDS011;34170;54.364;18.582;2022-08-19T14:38:42;15.80;;;6.75;;
48363;SDS011;34170;54.364;18.582;2022-08-19T14:41:11;8.68;;;6.13;;
48363;SDS011;34170;54.364;18.582;2022-08-19T14:43:44;10.75;;;6.20;;
48363;SDS011;34170;54.364;18.582;2022-08-19T14:46:18;9.32;;;6.20;;
48363;SDS011;34170;54.364;18.582;2022-08-19T14:48:48;14.52;;;6.68;;
48363;SDS011;34170;54.364;18.582;2022-08-19T14:51:18;10.93;;;5.65;;
48363;SDS011;34170;54.364;18.582;2022-08-19T14:53:47;9.57;;;5.90;;
48363;SDS011;34170;54.364;18.582;2022-08-19T14:56:18;10.68;;;5.88;;
48363;SDS011;34170;54.364;18.582;2022-08-19T14:58:49;7.60;;;6.30;;
48363;SDS011;34170;54.364;18.582;2022-08-19T15:01:19;10.30;;;5.78;;